createdAt,value
2022-10-25T00:01:53.595Z,70.33
2022-10-25T00:06:48.124Z,69.86
2022-10-25T00:09:14.909Z,70.07
2022-10-25T00:11:41.699Z,70.07
2022-10-25T00:14:08.549Z,69.97
2022-10-25T00:16:38.466Z,69.80
2022-10-25T00:19:05.916Z,70.10
2022-10-25T00:21:32.744Z,70.01
2022-10-25T00:23:59.502Z,69.82
2022-10-25T00:26:26.246Z,69.74
2022-10-25T00:28:55.287Z,70.19
2022-10-25T00:31:22.716Z,70.06
2022-10-25T00:33:49.589Z,69.97
2022-10-25T00:36:19.901Z,69.74
2022-10-25T00:38:46.709Z,69.68
2022-10-25T00:41:15.976Z,69.76
2022-10-25T00:43:51.306Z,69.21
2022-10-25T00:46:21.034Z,69.32
2022-10-25T00:49:03.669Z,68.91
2022-10-25T00:51:58.913Z,68.81
2022-10-25T00:54:31.931Z,68.74
2022-10-25T00:57:01.841Z,68.61
2022-10-25T00:59:29.104Z,68.50
2022-10-25T01:01:56.602Z,68.70
2022-10-25T01:04:27.987Z,68.31
2022-10-25T01:06:55.189Z,68.65
2022-10-25T01:09:26.017Z,68.46
2022-10-25T01:11:52.851Z,68.55
2022-10-25T01:14:21.137Z,68.40
2022-10-25T01:17:13.028Z,68.64
2022-10-25T01:19:48.569Z,68.46
2022-10-25T01:22:18.334Z,68.62
2022-10-25T01:25:04.335Z,68.24
2022-10-25T01:27:45.687Z,68.65
2022-10-25T01:30:20.364Z,68.64
2022-10-25T01:32:47.260Z,68.44
2022-10-25T01:35:18.963Z,68.58
2022-10-25T01:38:00.769Z,68.23
2022-10-25T01:41:12.389Z,68.44
2022-10-25T01:43:45.650Z,68.56
2022-10-25T01:46:21.415Z,68.61
2022-10-25T01:48:59.135Z,68.36
2022-10-25T01:51:27.815Z,68.47
2022-10-25T01:53:54.931Z,68.57
2022-10-25T01:56:29.633Z,68.12
2022-10-25T01:59:30.865Z,68.40
2022-10-25T02:02:31.061Z,68.56
2022-10-25T02:05:17.563Z,68.54
2022-10-25T02:07:56.665Z,68.43
2022-10-25T02:10:26.426Z,68.68
2022-10-25T02:13:01.725Z,68.54
2022-10-25T02:15:34.047Z,68.24
2022-10-25T02:18:05.270Z,68.33
2022-10-25T02:20:34.879Z,68.41
2022-10-25T02:23:04.762Z,68.49
2022-10-25T02:25:37.389Z,68.21
2022-10-25T02:28:09.132Z,68.41
2022-10-25T02:30:38.621Z,68.30
2022-10-25T02:33:05.709Z,68.63
2022-10-25T02:35:32.495Z,68.39
2022-10-25T02:37:59.288Z,68.34
2022-10-25T02:40:26.174Z,68.36
2022-10-25T02:42:52.891Z,68.73
2022-10-25T02:45:19.794Z,68.52
2022-10-25T02:47:46.649Z,68.56
2022-10-25T02:50:13.801Z,68.80
2022-10-25T02:52:40.706Z,68.65
2022-10-25T02:55:07.742Z,68.93
2022-10-25T02:57:36.309Z,68.59
2022-10-25T03:00:05.790Z,68.56
2022-10-25T03:02:32.536Z,68.52
2022-10-25T03:04:59.295Z,68.33
2022-10-25T03:07:26.117Z,68.48
2022-10-25T03:09:52.843Z,68.34
2022-10-25T03:12:19.550Z,68.31
2022-10-25T03:14:46.415Z,68.50
2022-10-25T03:17:13.123Z,68.52
2022-10-25T03:19:39.845Z,68.52
2022-10-25T03:22:06.746Z,68.37
2022-10-25T03:24:33.444Z,68.45
2022-10-25T03:27:00.634Z,68.24
2022-10-25T03:29:27.464Z,68.63
2022-10-25T03:31:54.177Z,68.62
2022-10-25T03:34:20.905Z,68.42
2022-10-25T03:36:47.680Z,68.75
2022-10-25T03:39:14.504Z,68.84
2022-10-25T03:41:41.272Z,69.05
2022-10-25T03:44:08.081Z,69.17
2022-10-25T03:46:34.878Z,69.36
2022-10-25T03:49:01.599Z,69.22
2022-10-25T03:51:28.369Z,69.43
2022-10-25T03:53:55.061Z,69.35
2022-10-25T03:56:21.800Z,69.33
2022-10-25T03:58:48.633Z,69.03
2022-10-25T04:01:15.505Z,69.32
2022-10-25T04:03:45.214Z,69.28
2022-10-25T04:06:12.329Z,69.29
2022-10-25T04:08:39.316Z,69.22
2022-10-25T04:11:06.062Z,69.61
2022-10-25T04:13:32.888Z,69.54
2022-10-25T04:15:59.645Z,69.30
2022-10-25T04:18:26.338Z,69.33
2022-10-25T04:20:53.179Z,69.06
2022-10-25T04:23:19.918Z,69.09
2022-10-25T04:25:46.648Z,68.86
2022-10-25T04:28:13.608Z,69.04
2022-10-25T04:30:40.363Z,69.17
2022-10-25T04:33:07.139Z,68.84
2022-10-25T04:35:34.035Z,69.01
2022-10-25T04:38:00.775Z,69.44
2022-10-25T04:40:27.470Z,69.48
2022-10-25T04:42:54.965Z,69.46
2022-10-25T04:45:21.715Z,69.69
2022-10-25T04:47:48.429Z,69.75
2022-10-25T04:50:15.272Z,69.80
2022-10-25T04:52:41.960Z,69.92
2022-10-25T04:55:09.008Z,69.87
2022-10-25T04:57:35.826Z,69.97
2022-10-25T05:00:02.964Z,69.89
2022-10-25T05:02:29.843Z,70.05
2022-10-25T05:04:56.793Z,69.88
2022-10-25T05:07:23.619Z,70.33
2022-10-25T05:09:50.328Z,70.17
2022-10-25T05:12:17.207Z,69.93
2022-10-25T05:14:44.352Z,69.77
2022-10-25T05:17:11.078Z,69.84
2022-10-25T05:19:37.980Z,69.68
2022-10-25T05:22:04.681Z,69.83
2022-10-25T05:24:31.426Z,69.62
2022-10-25T05:26:58.294Z,69.92
2022-10-25T05:29:25.051Z,69.61
2022-10-25T05:31:51.740Z,69.76
2022-10-25T05:34:18.490Z,69.38
2022-10-25T05:36:45.170Z,69.59
2022-10-25T05:39:11.930Z,69.78
2022-10-25T05:41:38.797Z,69.50
2022-10-25T05:44:06.376Z,70.01
2022-10-25T05:46:33.172Z,69.98
2022-10-25T05:49:00.412Z,70.62
2022-10-25T05:51:37.318Z,71.05
2022-10-25T05:54:10.685Z,71.80
2022-10-25T05:56:38.425Z,72.64
2022-10-25T05:59:10.183Z,73.97
2022-10-25T06:01:42.082Z,75.10
2022-10-25T06:04:09.601Z,76.34
2022-10-25T06:06:38.086Z,76.61
2022-10-25T06:09:06.121Z,77.37
2022-10-25T06:11:33.420Z,77.61
2022-10-25T06:14:00.159Z,78.62
2022-10-25T06:16:27.036Z,79.05
2022-10-25T06:18:54.724Z,79.67
2022-10-25T06:21:24.509Z,80.23
2022-10-25T06:23:52.228Z,80.88
2022-10-25T06:26:24.923Z,82.61
2022-10-25T06:28:53.561Z,83.28
2022-10-25T06:31:20.985Z,84.26
2022-10-25T06:33:48.072Z,84.49
2022-10-25T06:36:20.037Z,84.34
2022-10-25T06:38:47.618Z,84.88
2022-10-25T06:41:21.403Z,84.91
2022-10-25T06:43:49.305Z,85.70
2022-10-25T06:46:22.132Z,86.47
2022-10-25T06:48:50.017Z,87.28
2022-10-25T06:51:16.784Z,88.11
2022-10-25T06:53:43.937Z,88.19
2022-10-25T06:56:14.739Z,88.57
2022-10-25T06:58:42.036Z,87.95
2022-10-25T07:01:14.792Z,88.66
2022-10-25T07:03:42.689Z,88.38
2022-10-25T07:06:15.228Z,88.92
2022-10-25T07:08:44.768Z,89.16
2022-10-25T07:11:18.516Z,89.74
2022-10-25T07:13:46.025Z,89.95
2022-10-25T07:16:15.529Z,90.46
2022-10-25T07:18:43.034Z,91.20
2022-10-25T07:21:20.282Z,90.99
2022-10-25T07:23:47.925Z,91.84
2022-10-25T07:26:17.148Z,92.11
2022-10-25T07:28:46.293Z,92.94
2022-10-25T07:31:21.323Z,93.14
2022-10-25T07:33:49.483Z,93.04
2022-10-25T07:36:16.453Z,93.15
2022-10-25T07:38:43.265Z,93.18
2022-10-25T07:41:10.733Z,92.95
2022-10-25T07:43:37.631Z,93.01
2022-10-25T07:46:05.650Z,92.95
2022-10-25T07:48:32.781Z,92.72
2022-10-25T07:51:06.861Z,92.74
2022-10-25T07:53:33.625Z,92.49
2022-10-25T07:56:00.391Z,92.72
2022-10-25T07:58:27.300Z,92.03
2022-10-25T08:01:00.507Z,91.73
2022-10-25T08:03:27.336Z,91.94
2022-10-25T08:05:54.071Z,91.58
2022-10-25T08:08:23.287Z,91.26
2022-10-25T08:10:50.536Z,91.01
2022-10-25T08:13:17.415Z,91.24
2022-10-25T08:15:55.298Z,90.88
2022-10-25T08:18:23.532Z,90.91
2022-10-25T08:21:02.473Z,90.54
2022-10-25T08:23:31.880Z,90.29
2022-10-25T08:25:59.182Z,90.47
2022-10-25T08:28:26.205Z,90.12
2022-10-25T08:30:55.577Z,89.89
2022-10-25T08:33:23.158Z,89.42
2022-10-25T08:35:49.898Z,88.66
2022-10-25T08:38:16.738Z,87.86
2022-10-25T08:40:46.497Z,87.76
2022-10-25T08:43:22.611Z,87.59
2022-10-25T08:45:58.508Z,87.06
2022-10-25T08:48:33.197Z,86.16
2022-10-25T08:51:04.770Z,85.95
2022-10-25T08:53:38.704Z,85.45
2022-10-25T08:56:16.603Z,84.18
2022-10-25T08:58:51.441Z,83.82
2022-10-25T09:01:28.707Z,82.82
2022-10-25T09:03:56.019Z,82.65
2022-10-25T09:06:34.605Z,82.21
2022-10-25T09:09:25.243Z,81.53
2022-10-25T09:11:54.722Z,80.73
2022-10-25T09:14:26.058Z,80.79
2022-10-25T09:17:01.355Z,82.92
2022-10-25T09:19:39.284Z,83.79
2022-10-25T09:22:14.139Z,84.94
2022-10-25T09:24:59.979Z,84.22
2022-10-25T09:27:26.639Z,83.56
2022-10-25T09:30:07.340Z,82.63
2022-10-25T09:32:45.075Z,81.94
2022-10-25T09:35:23.275Z,81.74
2022-10-25T09:37:55.665Z,81.82
2022-10-25T09:40:28.433Z,82.57
2022-10-25T09:42:59.249Z,83.17
2022-10-25T09:45:31.448Z,83.58
2022-10-25T09:48:06.267Z,84.08
2022-10-25T09:50:43.994Z,83.57
2022-10-25T09:53:14.858Z,84.38
2022-10-25T09:55:56.425Z,83.35
2022-10-25T09:58:26.143Z,83.93
2022-10-25T10:00:56.608Z,83.88
2022-10-25T10:03:28.310Z,83.95
2022-10-25T10:05:59.213Z,83.89
2022-10-25T10:08:26.483Z,84.07
2022-10-25T10:10:55.186Z,84.94
2022-10-25T10:13:45.097Z,85.75
2022-10-25T10:16:23.905Z,86.41
2022-10-25T10:18:50.696Z,87.32
2022-10-25T10:21:20.681Z,87.54
2022-10-25T10:24:01.499Z,88.90
2022-10-25T10:26:32.359Z,89.65
2022-10-25T10:29:20.113Z,89.97
2022-10-25T10:31:50.430Z,90.61
2022-10-25T10:34:27.819Z,90.48
2022-10-25T10:37:12.625Z,90.65
2022-10-25T10:40:00.210Z,89.67
2022-10-25T10:42:36.499Z,89.53
2022-10-25T10:45:09.054Z,89.30
2022-10-25T10:47:37.284Z,87.56
2022-10-25T10:50:33.064Z,88.25
2022-10-25T10:53:17.952Z,84.90
2022-10-25T10:55:53.072Z,84.79
2022-10-25T10:58:27.697Z,82.28
2022-10-25T11:01:00.864Z,80.09
2022-10-25T11:03:48.653Z,78.06
2022-10-25T11:06:34.352Z,77.73
2022-10-25T11:09:16.223Z,76.73
2022-10-25T11:11:43.213Z,76.84
2022-10-25T11:14:17.357Z,75.21
2022-10-25T11:16:56.280Z,75.17
2022-10-25T11:19:41.931Z,79.90
2022-10-25T11:22:17.577Z,76.11
2022-10-25T11:25:09.876Z,73.67
2022-10-25T11:27:57.613Z,70.99
2022-10-25T11:30:30.396Z,73.13
2022-10-25T11:33:06.403Z,70.68
2022-10-25T11:35:42.957Z,70.06
2022-10-25T11:38:34.555Z,69.26
2022-10-25T11:41:26.019Z,67.89
2022-10-25T11:44:30.958Z,70.04
2022-10-25T11:47:43.438Z,71.44
2022-10-25T11:50:40.100Z,72.30
2022-10-25T11:53:35.618Z,68.82
2022-10-25T11:56:16.828Z,66.72
2022-10-25T11:59:04.776Z,66.40
2022-10-25T12:01:46.813Z,67.68
2022-10-25T12:04:37.786Z,67.44
2022-10-25T12:07:13.455Z,69.15
2022-10-25T12:10:17.252Z,70.09
2022-10-25T12:12:58.540Z,71.63
2022-10-25T12:15:34.736Z,67.79
2022-10-25T12:18:02.313Z,67.88
2022-10-25T12:20:30.235Z,65.94
2022-10-25T12:23:03.826Z,64.83
2022-10-25T12:25:45.384Z,66.21
2022-10-25T12:28:44.173Z,62.18
2022-10-25T12:31:19.924Z,58.76
2022-10-25T12:33:53.745Z,56.08
2022-10-25T12:36:36.421Z,54.29
2022-10-25T12:39:11.307Z,53.46
2022-10-25T12:41:40.366Z,51.98
2022-10-25T12:44:40.721Z,51.69
2022-10-25T12:47:38.461Z,48.74
2022-10-25T12:50:21.317Z,49.69
2022-10-25T12:53:22.030Z,50.30
2022-10-25T12:55:54.797Z,50.79
2022-10-25T12:58:24.661Z,52.06
2022-10-25T13:01:34.794Z,54.26
2022-10-25T13:04:41.346Z,54.42
2022-10-25T13:07:09.810Z,54.61
2022-10-25T13:09:38.582Z,55.63
2022-10-25T13:12:08.511Z,56.97
2022-10-25T13:14:39.077Z,58.31
2022-10-25T13:17:20.566Z,59.08
2022-10-25T13:19:55.017Z,60.23
2022-10-25T13:22:37.487Z,61.22
2022-10-25T13:25:13.404Z,61.75
2022-10-25T13:28:15.655Z,62.35
2022-10-25T13:30:44.266Z,62.07
2022-10-25T13:33:18.589Z,62.89
2022-10-25T13:35:45.467Z,63.50
2022-10-25T13:38:22.143Z,64.22
2022-10-25T13:41:10.397Z,64.38
2022-10-25T13:44:01.091Z,64.32
2022-10-25T13:46:41.612Z,65.13
2022-10-25T13:49:32.630Z,65.23
2022-10-25T13:52:05.434Z,65.75
2022-10-25T13:54:44.506Z,66.06
2022-10-25T13:57:48.791Z,66.34
2022-10-25T14:00:26.511Z,66.52
2022-10-25T14:03:08.788Z,66.56
2022-10-25T14:05:56.677Z,66.84
2022-10-25T14:08:46.431Z,66.97
2022-10-25T14:11:16.387Z,67.57
2022-10-25T14:13:42.925Z,67.64
2022-10-25T14:16:21.078Z,67.17
2022-10-25T14:18:49.782Z,67.49
2022-10-25T14:21:16.829Z,67.36
2022-10-25T14:23:44.046Z,67.74
2022-10-25T14:26:16.065Z,67.46
2022-10-25T14:28:43.197Z,67.65
2022-10-25T14:31:18.457Z,67.55
2022-10-25T14:33:53.066Z,67.76
2022-10-25T14:36:27.854Z,67.48
2022-10-25T14:38:56.084Z,67.38
2022-10-25T14:41:34.812Z,67.35
2022-10-25T14:44:19.842Z,67.51
2022-10-25T14:46:46.578Z,67.22
2022-10-25T14:49:13.399Z,67.26
2022-10-25T14:51:42.737Z,67.93
2022-10-25T14:54:12.606Z,68.10
2022-10-25T14:56:49.205Z,68.84
2022-10-25T14:59:27.991Z,68.48
2022-10-25T15:02:01.398Z,68.26
2022-10-25T15:04:33.991Z,67.92
2022-10-25T15:07:02.830Z,67.94
2022-10-25T15:09:42.353Z,68.09
2022-10-25T15:12:12.772Z,67.94
2022-10-25T15:14:39.415Z,68.50
2022-10-25T15:17:19.053Z,68.24
2022-10-25T15:19:59.696Z,68.20
2022-10-25T15:22:40.196Z,67.97
2022-10-25T15:25:30.394Z,68.03
2022-10-25T15:28:09.270Z,68.58
2022-10-25T15:30:47.897Z,68.65
2022-10-25T15:33:29.029Z,68.96
2022-10-25T15:35:59.380Z,68.88
2022-10-25T15:38:47.970Z,69.78
2022-10-25T15:41:18.292Z,70.09
2022-10-25T15:43:45.165Z,69.97
2022-10-25T15:46:20.558Z,69.99
2022-10-25T15:48:48.555Z,70.24
2022-10-25T15:51:15.573Z,70.23
2022-10-25T15:53:42.340Z,70.11
2022-10-25T15:56:16.617Z,70.55
2022-10-25T15:58:43.392Z,71.17
2022-10-25T16:01:10.571Z,71.27
2022-10-25T16:03:37.686Z,71.65
2022-10-25T16:06:04.745Z,71.71
2022-10-25T16:08:31.598Z,71.57
2022-10-25T16:10:58.970Z,71.64
2022-10-25T16:13:35.523Z,72.13
2022-10-25T16:16:11.809Z,72.28
2022-10-25T16:18:43.351Z,72.68
2022-10-25T16:21:10.411Z,72.67
2022-10-25T16:23:37.155Z,72.89
2022-10-25T16:26:04.067Z,72.83
2022-10-25T16:28:31.024Z,72.44
2022-10-25T16:30:57.782Z,72.81
2022-10-25T16:33:24.561Z,72.06
2022-10-25T16:35:51.348Z,72.58
2022-10-25T16:38:18.067Z,72.49
2022-10-25T16:40:44.770Z,72.80
2022-10-25T16:43:12.525Z,72.86
2022-10-25T16:45:39.249Z,72.85
2022-10-25T16:48:06.448Z,72.98
2022-10-25T16:50:34.522Z,72.59
2022-10-25T16:53:09.374Z,72.81
2022-10-25T16:55:36.232Z,73.58
2022-10-25T16:58:03.074Z,73.51
2022-10-25T17:00:35.948Z,73.92
2022-10-25T17:03:03.235Z,74.03
2022-10-25T17:05:33.106Z,74.45
2022-10-25T17:07:59.714Z,75.81
2022-10-25T17:10:27.228Z,75.39
2022-10-25T17:13:01.585Z,75.45
2022-10-25T17:15:28.493Z,75.53
2022-10-25T17:17:55.183Z,75.65
2022-10-25T17:20:22.358Z,75.71
2022-10-25T17:22:50.130Z,75.78
2022-10-25T17:25:17.435Z,75.91
2022-10-25T17:27:48.023Z,76.13
2022-10-25T17:30:16.609Z,76.45
2022-10-25T17:32:43.369Z,76.72
2022-10-25T17:35:10.088Z,76.51
2022-10-25T17:37:36.909Z,76.77
2022-10-25T17:40:04.091Z,76.68
2022-10-25T17:42:30.833Z,76.83
2022-10-25T17:44:57.673Z,77.06
2022-10-25T17:47:24.431Z,77.33
2022-10-25T17:49:51.209Z,77.37
2022-10-25T17:52:18.033Z,77.34
2022-10-25T17:54:45.105Z,77.32
2022-10-25T17:57:11.792Z,77.39
2022-10-25T17:59:38.628Z,77.22
2022-10-25T18:02:05.437Z,76.97
2022-10-25T18:04:45.810Z,76.99
2022-10-25T18:07:19.151Z,77.63
2022-10-25T18:09:45.836Z,78.26
2022-10-25T18:12:12.732Z,78.38
2022-10-25T18:14:39.545Z,78.94
2022-10-25T18:17:06.702Z,78.71
2022-10-25T18:19:33.597Z,78.74
2022-10-25T18:22:00.961Z,78.67
2022-10-25T18:24:30.707Z,78.96
2022-10-25T18:26:57.616Z,78.91
2022-10-25T18:29:24.527Z,79.00
2022-10-25T18:31:51.591Z,79.00
2022-10-25T18:34:18.904Z,79.22
2022-10-25T18:36:45.837Z,79.06
2022-10-25T18:39:12.548Z,78.95
2022-10-25T18:41:41.001Z,78.99
2022-10-25T18:44:14.177Z,78.88
2022-10-25T18:46:42.334Z,78.89
2022-10-25T18:49:12.618Z,78.71
2022-10-25T18:51:40.712Z,78.61
2022-10-25T18:54:10.122Z,78.55
2022-10-25T18:56:37.062Z,78.35
2022-10-25T18:59:04.182Z,78.26
2022-10-25T19:01:33.795Z,78.08
2022-10-25T19:04:03.742Z,77.92
2022-10-25T19:06:30.884Z,78.21
2022-10-25T19:08:57.623Z,77.85
2022-10-25T19:11:24.564Z,77.66
2022-10-25T19:13:55.750Z,77.40
2022-10-25T19:16:23.296Z,77.27
2022-10-25T19:18:50.161Z,77.16
2022-10-25T19:21:18.567Z,77.03
2022-10-25T19:23:46.796Z,77.12
2022-10-25T19:26:19.230Z,76.92
2022-10-25T19:28:46.441Z,76.99
2022-10-25T19:31:16.940Z,76.99
2022-10-25T19:33:48.131Z,76.84
2022-10-25T19:36:16.221Z,76.75
2022-10-25T19:38:45.131Z,77.02
2022-10-25T19:41:16.601Z,77.02
2022-10-25T19:43:43.837Z,77.35
2022-10-25T19:46:12.158Z,77.15
2022-10-25T19:48:39.101Z,77.24
2022-10-25T19:51:11.538Z,77.58
2022-10-25T19:53:38.762Z,77.10
2022-10-25T19:56:14.761Z,77.18
2022-10-25T19:58:42.383Z,77.02
2022-10-25T20:01:15.745Z,76.88
2022-10-25T20:03:45.099Z,76.87
2022-10-25T20:06:20.026Z,76.85
2022-10-25T20:08:50.186Z,76.97
2022-10-25T20:11:18.471Z,77.05
2022-10-25T20:13:45.738Z,77.11
2022-10-25T20:16:14.220Z,77.09
2022-10-25T20:18:42.338Z,77.10
2022-10-25T20:21:13.340Z,77.09
2022-10-25T20:23:41.672Z,77.38
2022-10-25T20:26:19.203Z,78.08
2022-10-25T20:28:47.028Z,78.63
2022-10-25T20:31:14.631Z,79.02
2022-10-25T20:33:41.684Z,78.85
2022-10-25T20:36:13.311Z,79.05
2022-10-25T20:38:40.755Z,78.92
2022-10-25T20:41:09.081Z,78.70
2022-10-25T20:43:36.752Z,78.54
2022-10-25T20:46:04.069Z,78.51
2022-10-25T20:48:31.058Z,78.60
2022-10-25T20:50:57.875Z,78.62
2022-10-25T20:53:24.582Z,78.83
2022-10-25T20:55:51.434Z,79.00
2022-10-25T20:58:21.374Z,79.22
2022-10-25T21:00:48.655Z,80.65
2022-10-25T21:03:16.534Z,80.59
2022-10-25T21:05:44.113Z,81.92
2022-10-25T21:08:12.545Z,82.71
2022-10-25T21:10:40.304Z,83.29
2022-10-25T21:13:07.717Z,83.47
2022-10-25T21:15:34.457Z,83.98
2022-10-25T21:18:01.544Z,84.26
2022-10-25T21:20:28.834Z,84.71
2022-10-25T21:22:56.497Z,85.02
2022-10-25T21:25:23.763Z,84.98
2022-10-25T21:27:54.619Z,85.43
2022-10-25T21:30:21.661Z,85.47
2022-10-25T21:32:48.607Z,85.67
2022-10-25T21:35:15.585Z,85.43
2022-10-25T21:37:45.405Z,85.47
2022-10-25T21:40:16.208Z,85.18
2022-10-25T21:42:43.189Z,84.99
2022-10-25T21:45:10.887Z,84.98
2022-10-25T21:47:37.846Z,84.60
2022-10-25T21:50:05.995Z,84.52
2022-10-25T21:52:32.836Z,83.97
2022-10-25T21:54:59.784Z,83.77
2022-10-25T21:57:26.490Z,83.50
2022-10-25T21:59:53.195Z,83.13
2022-10-25T22:02:20.076Z,82.62
2022-10-25T22:04:46.852Z,82.39
2022-10-25T22:07:14.995Z,82.05
2022-10-25T22:09:41.761Z,81.99
2022-10-25T22:12:08.481Z,81.32
2022-10-25T22:14:35.197Z,80.97
2022-10-25T22:17:02.019Z,80.73
2022-10-25T22:19:28.903Z,80.36
2022-10-25T22:21:55.618Z,80.31
2022-10-25T22:24:22.455Z,80.07
2022-10-25T22:26:51.458Z,79.50
2022-10-25T22:29:18.229Z,79.46
2022-10-25T22:31:45.095Z,79.33
2022-10-25T22:34:11.810Z,79.03
2022-10-25T22:36:40.546Z,78.67
2022-10-25T22:39:08.753Z,78.64
2022-10-25T22:41:36.179Z,79.12
2022-10-25T22:44:03.193Z,79.96
2022-10-25T22:46:36.534Z,80.43
2022-10-25T22:49:09.398Z,81.04
2022-10-25T22:51:38.056Z,80.99
2022-10-25T22:54:05.181Z,80.76
2022-10-25T22:56:32.416Z,80.41
2022-10-25T22:59:02.740Z,80.01
2022-10-25T23:01:38.703Z,79.58
2022-10-25T23:04:08.953Z,79.52
2022-10-25T23:06:38.600Z,79.37
2022-10-25T23:09:09.343Z,78.80
2022-10-25T23:11:38.115Z,78.74
2022-10-25T23:14:05.559Z,78.24
2022-10-25T23:16:32.527Z,77.68
2022-10-25T23:18:59.536Z,77.64
2022-10-25T23:21:30.338Z,77.68
2022-10-25T23:23:59.325Z,78.19
2022-10-25T23:26:34.154Z,78.23
2022-10-25T23:29:01.612Z,78.61
2022-10-25T23:31:29.601Z,78.65
2022-10-25T23:33:58.193Z,78.69
2022-10-25T23:36:28.173Z,78.31
2022-10-25T23:38:55.929Z,78.72
2022-10-25T23:41:23.474Z,78.13
2022-10-25T23:43:50.452Z,78.36
2022-10-25T23:46:17.197Z,78.49
2022-10-25T23:48:44.166Z,78.97
2022-10-25T23:51:13.477Z,79.49
2022-10-25T23:53:40.646Z,79.63
2022-10-25T23:56:09.364Z,79.48
2022-10-25T23:58:36.567Z,79.31
